createdAt,value
2019-02-03T00:00:23.403Z,9.20
2019-02-03T00:02:52.872Z,9.22
2019-02-03T00:05:22.378Z,9.16
2019-02-03T00:07:52.253Z,9.16
2019-02-03T00:10:21.718Z,9.33
2019-02-03T00:12:51.215Z,9.20
2019-02-03T00:15:20.762Z,9.16
2019-02-03T00:17:50.227Z,9.13
2019-02-03T00:20:19.728Z,9.19
2019-02-03T00:22:49.228Z,9.10
2019-02-03T00:25:18.715Z,9.06
2019-02-03T00:27:48.189Z,9.12
2019-02-03T00:30:17.699Z,9.10
2019-02-03T00:32:47.170Z,9.10
2019-02-03T00:35:16.649Z,9.11
2019-02-03T00:37:46.166Z,9.12
2019-02-03T00:40:16.135Z,9.16
2019-02-03T00:42:45.767Z,9.38
2019-02-03T00:45:15.864Z,9.38
2019-02-03T00:47:45.616Z,9.30
2019-02-03T00:50:16.518Z,9.32
2019-02-03T00:52:46.115Z,9.25
2019-02-03T00:55:18.127Z,9.28
2019-02-03T00:57:47.631Z,9.21
2019-02-03T01:00:18.277Z,9.31
2019-02-03T01:02:47.777Z,9.21
2019-02-03T01:05:20.507Z,9.21
2019-02-03T01:07:51.882Z,9.08
2019-02-03T01:10:23.747Z,9.03
2019-02-03T01:12:53.240Z,8.98
2019-02-03T01:15:22.810Z,8.98
2019-02-03T01:17:52.337Z,8.95
2019-02-03T01:20:25.985Z,9.03
2019-02-03T01:22:55.472Z,9.12
2019-02-03T01:25:24.980Z,9.16
2019-02-03T01:27:54.422Z,9.18
2019-02-03T01:30:24.888Z,9.27
2019-02-03T01:32:54.494Z,9.31
2019-02-03T01:35:23.979Z,9.46
2019-02-03T01:37:53.828Z,9.51
2019-02-03T01:40:23.322Z,9.51
2019-02-03T01:42:52.792Z,9.53
2019-02-03T01:45:23.489Z,9.52
2019-02-03T01:47:52.941Z,9.60
2019-02-03T01:50:22.432Z,9.59
2019-02-03T01:52:51.925Z,9.60
2019-02-03T01:55:28.148Z,9.61
2019-02-03T01:57:57.638Z,9.58
2019-02-03T02:00:29.358Z,9.63
2019-02-03T02:02:59.195Z,9.84
2019-02-03T02:05:28.685Z,9.81
2019-02-03T02:07:58.259Z,9.76
2019-02-03T02:10:29.127Z,9.73
2019-02-03T02:12:58.619Z,9.72
2019-02-03T02:15:28.076Z,9.73
2019-02-03T02:17:57.548Z,9.71
2019-02-03T02:20:30.591Z,9.70
2019-02-03T02:23:00.064Z,9.72
2019-02-03T02:25:29.618Z,9.80
2019-02-03T02:27:59.112Z,9.75
2019-02-03T02:30:28.771Z,9.74
2019-02-03T02:32:58.261Z,9.75
2019-02-03T02:35:28.090Z,9.71
2019-02-03T02:38:06.508Z,9.70
2019-02-03T02:40:28.730Z,9.73
2019-02-03T02:42:58.610Z,9.77
2019-02-03T02:45:28.061Z,9.75
2019-02-03T02:47:57.526Z,9.76
2019-02-03T02:50:31.532Z,9.71
2019-02-03T02:53:01.112Z,9.66
2019-02-03T02:55:31.087Z,9.70
2019-02-03T02:58:01.054Z,9.68
2019-02-03T03:00:30.525Z,9.64
2019-02-03T03:03:00.151Z,9.63
2019-02-03T03:05:29.609Z,9.55
2019-02-03T03:07:59.087Z,9.57
2019-02-03T03:10:28.709Z,9.60
2019-02-03T03:12:58.352Z,9.52
2019-02-03T03:15:27.911Z,9.56
2019-02-03T03:17:57.398Z,9.51
2019-02-03T03:20:26.905Z,9.54
2019-02-03T03:22:56.655Z,9.53
2019-02-03T03:25:26.138Z,9.55
2019-02-03T03:27:55.624Z,9.50
2019-02-03T03:30:29.195Z,9.52
2019-02-03T03:32:58.723Z,9.46
2019-02-03T03:35:28.675Z,9.42
2019-02-03T03:37:58.149Z,9.44
2019-02-03T03:40:29.804Z,9.53
2019-02-03T03:42:59.265Z,9.53
2019-02-03T03:45:28.761Z,9.62
2019-02-03T03:47:58.522Z,9.62
2019-02-03T03:50:28.004Z,9.60
2019-02-03T03:52:57.527Z,9.57
2019-02-03T03:55:27.062Z,9.50
2019-02-03T03:57:56.579Z,9.47
2019-02-03T04:00:26.621Z,9.41
2019-02-03T04:02:56.192Z,9.37
2019-02-03T04:05:25.670Z,9.32
2019-02-03T04:07:55.146Z,9.34
2019-02-03T04:10:25.051Z,9.30
2019-02-03T04:12:54.515Z,9.30
2019-02-03T04:15:24.399Z,9.28
2019-02-03T04:17:53.913Z,9.33
2019-02-03T04:20:26.284Z,9.44
2019-02-03T04:22:55.756Z,9.50
2019-02-03T04:25:25.289Z,9.33
2019-02-03T04:27:54.747Z,9.20
2019-02-03T04:30:26.535Z,9.11
2019-02-03T04:32:56.039Z,9.08
2019-02-03T04:35:25.499Z,9.05
2019-02-03T04:37:55.068Z,9.03
2019-02-03T04:40:24.693Z,9.13
2019-02-03T04:42:54.174Z,9.11
2019-02-03T04:45:23.687Z,9.04
2019-02-03T04:47:53.178Z,9.02
2019-02-03T04:50:23.048Z,8.95
2019-02-03T04:52:52.531Z,9.08
2019-02-03T04:55:22.735Z,8.95
2019-02-03T04:57:52.191Z,8.90
2019-02-03T05:00:25.477Z,8.89
2019-02-03T05:02:54.964Z,8.86
2019-02-03T05:05:24.429Z,8.87
2019-02-03T05:07:54.424Z,8.81
2019-02-03T05:10:23.905Z,8.85
2019-02-03T05:12:53.635Z,9.01
2019-02-03T05:15:24.931Z,8.89
2019-02-03T05:17:54.470Z,8.82
2019-02-03T05:20:26.104Z,8.84
2019-02-03T05:22:55.564Z,8.76
2019-02-03T05:25:25.116Z,8.71
2019-02-03T05:27:54.531Z,8.69
2019-02-03T05:30:33.334Z,8.65
2019-02-03T05:33:03.104Z,8.64
2019-02-03T05:35:32.575Z,8.61
2019-02-03T05:38:02.117Z,8.65
2019-02-03T05:40:31.767Z,8.62
2019-02-03T05:43:01.325Z,8.58
2019-02-03T05:45:30.791Z,8.58
2019-02-03T05:48:00.328Z,8.54
2019-02-03T05:50:29.779Z,8.48
2019-02-03T05:52:59.310Z,8.43
2019-02-03T05:55:28.880Z,8.36
2019-02-03T05:57:58.493Z,8.29
2019-02-03T06:00:30.629Z,8.23
2019-02-03T06:03:00.121Z,8.17
2019-02-03T06:05:29.592Z,8.12
2019-02-03T06:07:59.190Z,8.06
2019-02-03T06:10:28.701Z,8.00
2019-02-03T06:12:58.604Z,7.94
2019-02-03T06:15:28.121Z,7.89
2019-02-03T06:17:57.616Z,7.85
2019-02-03T06:20:27.088Z,7.87
2019-02-03T06:22:56.557Z,7.88
2019-02-03T06:25:26.066Z,7.91
2019-02-03T06:27:55.675Z,7.95
2019-02-03T06:30:46.738Z,8.00
2019-02-03T06:33:16.185Z,8.05
2019-02-03T06:35:45.680Z,8.12
2019-02-03T06:38:15.169Z,8.14
2019-02-03T06:40:44.673Z,8.16
2019-02-03T06:43:14.158Z,8.15
2019-02-03T06:45:45.374Z,8.31
2019-02-03T06:48:16.924Z,8.36
2019-02-03T06:50:46.343Z,8.30
2019-02-03T06:53:15.921Z,8.26
2019-02-03T06:55:45.436Z,8.26
2019-02-03T06:58:14.933Z,8.34
2019-02-03T07:00:44.486Z,8.25
2019-02-03T07:03:14.230Z,8.24
2019-02-03T07:05:43.697Z,8.12
2019-02-03T07:08:13.233Z,8.09
2019-02-03T07:10:42.690Z,8.02
2019-02-03T07:13:12.215Z,8.01
2019-02-03T07:15:41.720Z,7.99
2019-02-03T07:18:11.194Z,8.03
2019-02-03T07:20:40.689Z,8.09
2019-02-03T07:23:10.207Z,8.15
2019-02-03T07:25:39.671Z,8.25
2019-02-03T07:28:09.181Z,8.31
2019-02-03T07:30:39.025Z,8.57
2019-02-03T07:33:08.818Z,8.78
2019-02-03T07:35:38.348Z,8.71
2019-02-03T07:38:10.603Z,8.77
2019-02-03T07:40:39.032Z,8.72
2019-02-03T07:43:09.019Z,8.74
2019-02-03T07:45:38.479Z,8.73
2019-02-03T07:48:08.038Z,8.75
2019-02-03T07:50:37.516Z,8.81
2019-02-03T07:53:08.634Z,8.84
2019-02-03T07:55:38.595Z,8.88
2019-02-03T07:58:08.065Z,8.88
2019-02-03T08:00:37.747Z,8.93
2019-02-03T08:03:07.247Z,8.99
2019-02-03T08:05:36.724Z,9.14
2019-02-03T08:08:06.142Z,9.19
2019-02-03T08:10:35.685Z,9.34
2019-02-03T08:13:05.224Z,9.36
2019-02-03T08:15:34.815Z,9.41
2019-02-03T08:18:04.587Z,9.47
2019-02-03T08:20:34.062Z,9.58
2019-02-03T08:23:03.631Z,9.71
2019-02-03T08:25:33.384Z,9.88
2019-02-03T08:28:02.872Z,10.03
2019-02-03T08:30:33.081Z,10.21
2019-02-03T08:33:02.665Z,10.24
2019-02-03T08:35:32.135Z,10.42
2019-02-03T08:38:01.728Z,10.48
2019-02-03T08:40:37.023Z,10.49
2019-02-03T08:43:02.441Z,10.64
2019-02-03T08:45:32.056Z,10.76
2019-02-03T08:48:01.571Z,10.95
2019-02-03T08:50:31.088Z,11.14
2019-02-03T08:53:00.932Z,11.17
2019-02-03T08:55:30.504Z,11.24
2019-02-03T08:57:59.985Z,11.13
2019-02-03T09:00:34.915Z,11.10
2019-02-03T09:03:04.381Z,11.14
2019-02-03T09:05:34.019Z,11.22
2019-02-03T09:08:03.531Z,11.26
2019-02-03T09:10:33.031Z,11.07
2019-02-03T09:13:02.496Z,11.12
2019-02-03T09:15:32.008Z,11.06
2019-02-03T09:18:01.484Z,11.03
2019-02-03T09:20:35.877Z,10.97
2019-02-03T09:23:05.798Z,10.95
2019-02-03T09:25:35.390Z,10.95
2019-02-03T09:28:04.867Z,11.03
2019-02-03T09:30:36.390Z,11.16
2019-02-03T09:33:07.565Z,11.23
2019-02-03T09:35:37.041Z,11.33
2019-02-03T09:38:06.834Z,11.39
2019-02-03T09:40:36.327Z,11.68
2019-02-03T09:43:05.817Z,11.98
2019-02-03T09:45:35.305Z,12.26
2019-02-03T09:48:05.174Z,12.51
2019-02-03T09:50:34.651Z,12.71
2019-02-03T09:53:04.255Z,12.98
2019-02-03T09:55:33.730Z,13.31
2019-02-03T09:58:03.681Z,13.41
2019-02-03T10:00:38.239Z,13.37
2019-02-03T10:03:11.183Z,13.34
2019-02-03T10:05:40.658Z,13.39
2019-02-03T10:08:10.156Z,13.39
2019-02-03T10:10:42.002Z,13.30
2019-02-03T10:13:11.722Z,13.10
2019-02-03T10:15:41.226Z,12.81
2019-02-03T10:18:11.397Z,12.63
2019-02-03T10:20:40.887Z,12.58
2019-02-03T10:23:10.356Z,12.55
2019-02-03T10:25:39.851Z,12.43
2019-02-03T10:28:21.465Z,12.31
2019-02-03T10:30:50.956Z,12.31
2019-02-03T10:33:20.461Z,12.39
2019-02-03T10:36:09.703Z,12.48
2019-02-03T10:38:39.206Z,12.73
2019-02-03T10:41:08.691Z,13.27
2019-02-03T10:43:38.176Z,13.91
2019-02-03T10:46:08.050Z,14.39
2019-02-03T10:48:37.528Z,14.76
2019-02-03T10:51:07.945Z,15.22
2019-02-03T10:53:37.452Z,15.64
2019-02-03T10:56:06.949Z,15.48
2019-02-03T10:58:36.428Z,15.18
2019-02-03T11:01:06.100Z,15.14
2019-02-03T11:03:35.565Z,15.36
2019-02-03T11:06:05.092Z,15.47
2019-02-03T11:08:34.601Z,15.24
2019-02-03T11:11:04.086Z,15.26
2019-02-03T11:13:33.566Z,14.91
2019-02-03T11:16:03.247Z,15.02
2019-02-03T11:18:32.708Z,15.06
2019-02-03T11:21:02.212Z,15.20
2019-02-03T11:23:31.816Z,15.36
2019-02-03T11:26:01.457Z,15.59
2019-02-03T11:28:31.294Z,15.36
2019-02-03T11:31:01.314Z,15.36
2019-02-03T11:33:31.226Z,15.32
2019-02-03T11:36:00.992Z,14.98
2019-02-03T11:38:30.722Z,14.52
2019-02-03T11:41:00.196Z,14.51
2019-02-03T11:43:29.665Z,14.48
2019-02-03T11:45:59.497Z,14.44
2019-02-03T11:48:29.126Z,14.38
2019-02-03T11:50:58.668Z,14.60
2019-02-03T11:53:28.391Z,15.03
2019-02-03T11:55:57.874Z,15.39
2019-02-03T11:58:27.374Z,15.98
2019-02-03T12:00:57.463Z,16.25
2019-02-03T12:03:28.761Z,16.36
2019-02-03T12:05:58.225Z,16.15
2019-02-03T12:08:27.729Z,15.96
2019-02-03T12:10:57.208Z,16.58
2019-02-03T12:13:26.871Z,17.65
2019-02-03T12:15:56.380Z,18.82
2019-02-03T12:18:25.851Z,19.02
2019-02-03T12:20:55.342Z,18.94
2019-02-03T12:23:24.834Z,18.39
2019-02-03T12:25:54.336Z,18.38
2019-02-03T12:28:23.799Z,18.88
2019-02-03T12:30:53.496Z,18.50
2019-02-03T12:33:22.997Z,18.20
2019-02-03T12:35:52.496Z,17.94
2019-02-03T12:38:22.514Z,17.72
2019-02-03T12:40:52.040Z,17.24
2019-02-03T12:43:21.535Z,16.96
2019-02-03T12:45:51.078Z,16.62
2019-02-03T12:48:39.947Z,16.37
2019-02-03T12:51:09.642Z,15.99
2019-02-03T12:53:39.106Z,15.70
2019-02-03T12:56:08.742Z,15.39
2019-02-03T12:58:38.278Z,15.23
2019-02-03T13:01:07.762Z,15.40
2019-02-03T13:03:37.239Z,15.51
2019-02-03T13:06:08.138Z,15.61
2019-02-03T13:08:37.820Z,15.60
2019-02-03T13:11:07.305Z,15.36
2019-02-03T13:13:36.917Z,15.32
2019-02-03T13:16:06.646Z,15.26
2019-02-03T13:18:36.144Z,15.27
2019-02-03T13:21:05.647Z,15.21
2019-02-03T13:23:44.568Z,15.06
2019-02-03T13:26:06.317Z,14.91
2019-02-03T13:28:36.195Z,14.69
2019-02-03T13:31:05.687Z,14.49
2019-02-03T13:33:35.178Z,14.35
2019-02-03T13:36:06.801Z,14.16
2019-02-03T13:38:36.298Z,14.07
2019-02-03T13:41:06.065Z,13.77
2019-02-03T13:43:36.515Z,13.61
2019-02-03T13:46:06.007Z,13.07
2019-02-03T13:48:35.496Z,12.78
2019-02-03T13:51:05.003Z,12.29
2019-02-03T13:53:34.515Z,12.02
2019-02-03T13:56:03.997Z,11.76
2019-02-03T13:58:37.148Z,11.69
2019-02-03T14:01:04.878Z,11.56
2019-02-03T14:03:34.476Z,11.55
2019-02-03T14:06:04.002Z,11.38
2019-02-03T14:08:33.503Z,11.36
2019-02-03T14:11:02.997Z,11.24
2019-02-03T14:13:32.495Z,11.25
2019-02-03T14:16:01.995Z,11.24
2019-02-03T14:18:31.401Z,11.02
2019-02-03T14:21:01.235Z,10.94
2019-02-03T14:23:30.756Z,10.81
2019-02-03T14:26:00.230Z,10.79
2019-02-03T14:28:29.854Z,10.63
2019-02-03T14:30:59.502Z,10.61
2019-02-03T14:33:29.463Z,10.51
2019-02-03T14:35:58.988Z,10.45
2019-02-03T14:38:28.455Z,10.12
2019-02-03T14:40:57.918Z,9.99
2019-02-03T14:43:27.416Z,9.73
2019-02-03T14:45:56.888Z,9.71
2019-02-03T14:48:26.345Z,9.53
2019-02-03T14:50:55.892Z,9.43
2019-02-03T14:53:25.356Z,9.51
2019-02-03T14:55:54.818Z,9.55
2019-02-03T14:58:24.431Z,9.44
2019-02-03T15:00:54.190Z,9.20
2019-02-03T15:03:23.699Z,9.17
2019-02-03T15:05:53.204Z,9.12
2019-02-03T15:08:22.920Z,9.10
2019-02-03T15:10:52.386Z,9.12
2019-02-03T15:13:21.867Z,9.11
2019-02-03T15:15:51.366Z,9.12
2019-02-03T15:18:20.975Z,9.02
2019-02-03T15:20:50.495Z,8.93
2019-02-03T15:23:19.969Z,8.95
2019-02-03T15:25:49.451Z,8.94
2019-02-03T15:28:19.000Z,8.85
2019-02-03T15:30:48.461Z,8.70
2019-02-03T15:33:17.918Z,8.79
2019-02-03T15:35:47.417Z,8.89
2019-02-03T15:38:16.887Z,8.63
2019-02-03T15:40:46.651Z,8.57
2019-02-03T15:43:25.125Z,8.44
2019-02-03T15:45:47.368Z,8.39
2019-02-03T15:48:16.840Z,8.32
2019-02-03T15:50:46.344Z,8.34
2019-02-03T15:53:16.077Z,8.35
2019-02-03T15:55:45.536Z,8.32
2019-02-03T15:58:15.042Z,8.42
2019-02-03T16:00:53.413Z,8.41
2019-02-03T16:03:22.906Z,8.31
2019-02-03T16:05:52.748Z,8.31
2019-02-03T16:08:22.231Z,8.47
2019-02-03T16:10:51.723Z,8.35
2019-02-03T16:13:21.312Z,8.41
2019-02-03T16:15:50.799Z,8.52
2019-02-03T16:18:20.283Z,8.35
2019-02-03T16:20:49.744Z,8.49
2019-02-03T16:23:19.279Z,8.31
2019-02-03T16:25:48.760Z,8.26
2019-02-03T16:28:18.216Z,8.36
2019-02-03T16:30:47.719Z,8.26
2019-02-03T16:33:17.185Z,8.23
2019-02-03T16:35:46.650Z,8.20
2019-02-03T16:38:23.042Z,8.23
2019-02-03T16:40:47.319Z,8.18
2019-02-03T16:43:17.123Z,8.32
2019-02-03T16:45:46.614Z,8.38
2019-02-03T16:48:16.245Z,8.42
2019-02-03T16:50:45.715Z,8.36
2019-02-03T16:53:15.195Z,8.48
2019-02-03T16:55:44.750Z,8.46
2019-02-03T16:58:16.059Z,8.58
2019-02-03T17:00:46.116Z,8.52
2019-02-03T17:03:15.587Z,8.48
2019-02-03T17:05:45.276Z,8.51
2019-02-03T17:08:14.816Z,8.48
2019-02-03T17:10:44.333Z,8.39
2019-02-03T17:13:13.899Z,8.39
2019-02-03T17:15:51.114Z,8.31
2019-02-03T17:18:20.622Z,8.32
2019-02-03T17:21:00.937Z,8.22
2019-02-03T17:23:21.289Z,8.27
2019-02-03T17:25:58.227Z,8.26
2019-02-03T17:28:27.689Z,8.19
2019-02-03T17:30:57.157Z,8.15
2019-02-03T17:33:26.643Z,8.18
2019-02-03T17:35:56.103Z,8.21
2019-02-03T17:38:25.575Z,8.23
2019-02-03T17:40:55.068Z,8.22
2019-02-03T17:43:24.922Z,8.09
2019-02-03T17:45:54.386Z,8.17
2019-02-03T17:48:23.866Z,8.12
2019-02-03T17:50:53.631Z,8.13
2019-02-03T17:53:23.491Z,8.16
2019-02-03T17:55:52.994Z,8.15
2019-02-03T17:58:22.449Z,8.13
2019-02-03T18:00:53.510Z,8.10
2019-02-03T18:03:22.990Z,8.13
2019-02-03T18:05:52.607Z,8.10
2019-02-03T18:08:22.132Z,8.10
2019-02-03T18:10:51.598Z,8.03
2019-02-03T18:13:21.063Z,8.17
2019-02-03T18:15:50.638Z,8.10
2019-02-03T18:18:20.324Z,8.18
2019-02-03T18:20:50.240Z,8.20
2019-02-03T18:23:19.725Z,8.11
2019-02-03T18:25:49.290Z,8.19
2019-02-03T18:28:18.744Z,8.05
2019-02-03T18:30:48.236Z,8.01
2019-02-03T18:33:17.713Z,8.00
2019-02-03T18:35:47.163Z,8.07
2019-02-03T18:38:17.047Z,7.99
2019-02-03T18:40:46.510Z,8.01
2019-02-03T18:43:15.976Z,7.90
2019-02-03T18:45:45.464Z,7.97
2019-02-03T18:48:14.924Z,8.09
2019-02-03T18:50:44.395Z,8.07
2019-02-03T18:53:13.869Z,7.87
2019-02-03T18:55:45.617Z,7.88
2019-02-03T18:58:15.078Z,7.89
2019-02-03T19:00:44.539Z,7.84
2019-02-03T19:03:13.989Z,7.88
2019-02-03T19:05:44.505Z,7.76
2019-02-03T19:08:13.986Z,7.60
2019-02-03T19:10:43.531Z,7.62
2019-02-03T19:13:13.290Z,7.59
2019-02-03T19:15:43.262Z,7.60
2019-02-03T19:18:12.712Z,7.64
2019-02-03T19:20:44.349Z,7.65
2019-02-03T19:23:14.651Z,7.58
2019-02-03T19:25:44.424Z,7.58
2019-02-03T19:28:14.500Z,7.53
2019-02-03T19:30:44.010Z,7.59
2019-02-03T19:33:13.477Z,7.54
2019-02-03T19:35:43.051Z,7.50
2019-02-03T19:38:12.547Z,7.45
2019-02-03T19:40:42.001Z,7.54
2019-02-03T19:43:11.757Z,7.48
2019-02-03T19:45:41.255Z,7.26
2019-02-03T19:48:10.775Z,7.29
2019-02-03T19:50:43.823Z,7.28
2019-02-03T19:53:13.801Z,7.29
2019-02-03T19:55:43.658Z,7.31
2019-02-03T19:58:13.161Z,7.41
2019-02-03T20:00:46.785Z,7.21
2019-02-03T20:03:16.271Z,7.16
2019-02-03T20:05:45.655Z,7.12
2019-02-03T20:08:15.439Z,7.01
2019-02-03T20:10:44.990Z,6.92
2019-02-03T20:13:14.458Z,6.93
2019-02-03T20:15:43.954Z,6.96
2019-02-03T20:18:13.436Z,6.93
2019-02-03T20:20:42.945Z,6.78
2019-02-03T20:23:12.683Z,6.84
2019-02-03T20:25:42.201Z,6.75
2019-02-03T20:28:11.664Z,6.75
2019-02-03T20:30:41.147Z,6.63
2019-02-03T20:33:10.628Z,6.71
2019-02-03T20:35:40.095Z,6.62
2019-02-03T20:38:09.643Z,6.53
2019-02-03T20:40:44.186Z,6.49
2019-02-03T20:43:15.480Z,6.45
2019-02-03T20:45:49.300Z,6.36
2019-02-03T20:48:16.095Z,6.27
2019-02-03T20:50:45.664Z,6.28
2019-02-03T20:53:15.124Z,6.27
2019-02-03T20:55:44.619Z,6.34
2019-02-03T20:58:14.086Z,6.29
2019-02-03T21:00:43.611Z,6.19
2019-02-03T21:03:13.095Z,6.25
2019-02-03T21:05:42.560Z,6.21
2019-02-03T21:08:12.061Z,6.08
2019-02-03T21:10:41.546Z,6.05
2019-02-03T21:13:11.855Z,6.01
2019-02-03T21:15:41.627Z,5.92
2019-02-03T21:18:11.386Z,5.93
2019-02-03T21:20:40.845Z,5.94
2019-02-03T21:23:10.369Z,5.82
2019-02-03T21:25:39.844Z,5.75
2019-02-03T21:28:09.309Z,5.72
2019-02-03T21:30:39.832Z,5.86
2019-02-03T21:33:09.272Z,5.80
2019-02-03T21:35:38.874Z,5.80
2019-02-03T21:38:08.533Z,5.61
2019-02-03T21:40:37.996Z,5.60
2019-02-03T21:43:07.490Z,5.54
2019-02-03T21:45:44.150Z,5.44
2019-02-03T21:48:08.635Z,5.47
2019-02-03T21:50:38.081Z,5.48
2019-02-03T21:53:07.701Z,5.57
2019-02-03T21:55:37.179Z,5.48
2019-02-03T21:58:06.682Z,5.44
2019-02-03T22:00:36.146Z,5.54
2019-02-03T22:03:05.612Z,5.57
2019-02-03T22:05:35.109Z,5.54
2019-02-03T22:08:04.767Z,5.60
2019-02-03T22:10:37.054Z,5.56
2019-02-03T22:13:06.681Z,5.46
2019-02-03T22:15:36.137Z,5.36
2019-02-03T22:18:05.664Z,5.27
2019-02-03T22:20:35.127Z,5.42
2019-02-03T22:23:04.589Z,5.34
2019-02-03T22:25:34.466Z,5.30
2019-02-03T22:28:04.029Z,5.25
2019-02-03T22:30:36.819Z,5.28
2019-02-03T22:33:06.599Z,5.24
2019-02-03T22:35:36.091Z,5.24
2019-02-03T22:38:05.953Z,5.29
2019-02-03T22:40:35.411Z,5.37
2019-02-03T22:43:04.919Z,5.34
2019-02-03T22:45:34.418Z,5.30
2019-02-03T22:48:03.881Z,5.19
2019-02-03T22:50:34.255Z,5.23
2019-02-03T22:53:03.745Z,5.15
2019-02-03T22:55:33.218Z,5.09
2019-02-03T22:58:02.678Z,5.27
2019-02-03T23:00:47.340Z,5.11
2019-02-03T23:03:17.164Z,5.30
2019-02-03T23:05:46.691Z,5.25
2019-02-03T23:08:16.199Z,5.17
2019-02-03T23:10:45.689Z,5.17
2019-02-03T23:13:15.154Z,5.07
2019-02-03T23:15:44.642Z,4.97
2019-02-03T23:18:14.106Z,4.94
2019-02-03T23:20:43.585Z,4.94
2019-02-03T23:23:13.038Z,5.06
2019-02-03T23:25:42.506Z,5.02
2019-02-03T23:28:11.972Z,4.92
2019-02-03T23:30:41.925Z,4.84
2019-02-03T23:33:11.405Z,4.85
2019-02-03T23:35:40.882Z,4.97
2019-02-03T23:38:10.377Z,5.01
2019-02-03T23:40:39.843Z,4.97
2019-02-03T23:43:09.247Z,5.02
2019-02-03T23:45:38.736Z,4.94
2019-02-03T23:48:08.192Z,4.93
2019-02-03T23:50:37.657Z,4.95
2019-02-03T23:53:07.254Z,5.01
2019-02-03T23:55:36.728Z,4.84
2019-02-03T23:58:06.284Z,4.76
